Time;durP1;ratioP1;P1;durP2;ratioP2;P2;SDS_P1;SDS_P2;PMS_P1;PMS_P2;Temp;Humidity;BMP_temperature;BMP_pressure;BME280_temperature;BME280_humidity;BME280_pressure;Samples;Min_cycle;Max_cycle;Signal;HPM_P1;HPM_P2
2022/08/05 00:00:08;;;;;;;10.30;7.85;;;;;;;19.31;100.00;99726.83;1660394;85;21040;-76
2022/08/05 00:02:38;;;;;;;10.32;9.43;;;;;;;19.35;100.00;99731.38;1655600;84;21693;-80
2022/08/05 00:05:06;;;;;;;11.38;10.08;;;;;;;19.35;100.00;99724.55;1709697;82;22244;-80
2022/08/05 00:07:32;;;;;;;12.00;9.25;;;;;;;19.36;100.00;99724.80;1725370;82;21088;-80
2022/08/05 00:09:59;;;;;;;10.03;9.00;;;;;;;19.43;100.00;99727.09;1705356;83;21530;-78
2022/08/05 00:12:26;;;;;;;11.15;9.28;;;;;;;19.43;100.00;99719.72;1703233;82;21141;-78
2022/08/05 00:14:52;;;;;;;10.43;9.53;;;;;;;19.45;100.00;99722.99;1696564;83;21178;-79
2022/08/05 00:17:19;;;;;;;9.83;8.85;;;;;;;19.45;100.00;99720.82;1707351;82;21065;-81
2022/08/05 00:19:45;;;;;;;16.37;10.18;;;;;;;19.49;100.00;99713.08;1718125;82;21106;-80
2022/08/05 00:22:12;;;;;;;9.85;8.98;;;;;;;19.52;100.00;99711.08;1716152;82;20959;-81
2022/08/05 00:24:39;;;;;;;13.88;10.00;;;;;;;19.49;100.00;99706.25;1718412;82;21079;-79
2022/08/05 00:27:06;;;;;;;9.13;8.23;;;;;;;19.46;100.00;99704.16;1678950;85;21601;-79
2022/08/05 00:29:33;;;;;;;10.23;8.50;;;;;;;19.49;100.00;99705.44;1663114;84;21047;-78
2022/08/05 00:32:00;;;;;;;10.75;8.75;;;;;;;19.42;100.00;99703.13;1677974;85;21024;-81
2022/08/05 00:34:27;;;;;;;10.58;9.20;;;;;;;19.39;100.00;99704.28;1640919;86;21107;-81
2022/08/05 00:36:54;;;;;;;9.93;8.58;;;;;;;19.33;100.00;99709.03;1661536;86;21636;-79
2022/08/05 00:39:20;;;;;;;8.73;7.92;;;;;;;19.19;100.00;99701.45;1661693;86;21023;-77
2022/08/05 00:41:47;;;;;;;9.93;8.13;;;;;;;19.11;100.00;99701.63;1661635;86;21122;-79
2022/08/05 00:44:14;;;;;;;8.78;7.90;;;;;;;19.12;100.00;99701.88;1636857;86;21061;-79
2022/08/05 00:46:40;;;;;;;8.88;7.87;;;;;;;19.12;100.00;99696.43;1651123;86;20929;-79
2022/08/05 00:49:07;;;;;;;8.68;7.65;;;;;;;19.20;100.00;99697.61;1639383;86;21656;-80
2022/08/05 00:51:35;;;;;;;7.80;7.10;;;;;;;19.29;100.00;99697.69;1655892;86;21106;-78
2022/08/05 00:54:02;;;;;;;8.98;8.03;;;;;;;19.27;100.00;99691.75;1658154;86;21321;-78
2022/08/05 00:56:31;;;;;;;19.07;10.03;;;;;;;19.22;100.00;99690.50;1662003;86;21034;-76
2022/08/05 00:58:57;;;;;;;9.13;8.25;;;;;;;19.18;100.00;99696.32;1657251;84;21671;-79
2022/08/05 01:01:24;;;;;;;9.73;8.80;;;;;;;19.10;100.00;99706.01;1634252;86;21397;-80
2022/08/05 01:03:51;;;;;;;9.33;8.43;;;;;;;19.04;100.00;99703.16;1661864;86;21048;-80
2022/08/05 01:06:18;;;;;;;11.75;7.92;;;;;;;18.99;100.00;99695.09;1648477;84;21111;-80
2022/08/05 01:08:44;;;;;;;12.07;8.83;;;;;;;18.99;100.00;99704.05;1625957;88;21059;-78
2022/08/05 01:11:23;;;;;;;8.90;8.20;;;;;;;18.92;100.00;99705.59;1655959;86;21104;-78
2022/08/05 01:14:13;;;;;;;7.90;7.00;;;;;;;18.88;100.00;99704.59;1661836;86;21027;-78
2022/08/05 01:16:51;;;;;;;9.73;7.60;;;;;;;18.90;100.00;99699.06;1672402;85;21037;-77
2022/08/05 01:19:41;;;;;;;9.78;8.95;;;;;;;18.89;100.00;99700.75;1681568;85;21138;-79
2022/08/05 01:22:18;;;;;;;9.23;8.40;;;;;;;18.94;100.00;99708.27;1638528;84;21070;-78
2022/08/05 01:25:20;;;;;;;8.48;7.70;;;;;;;18.88;100.00;99704.03;1661800;85;21025;-77
2022/08/05 01:28:23;;;;;;;10.13;9.25;;;;;;;18.90;100.00;99695.53;1666856;84;20988;-78
2022/08/05 01:31:10;;;;;;;9.68;8.88;;;;;;;18.91;100.00;99708.05;1676162;83;21139;-78
2022/08/05 01:33:45;;;;;;;11.03;9.95;;;;;;;18.89;100.00;99704.84;1679131;84;21142;-78
2022/08/05 01:36:14;;;;;;;9.80;8.75;;;;;;;18.79;100.00;99700.41;1678753;84;20948;-77
2022/08/05 01:38:41;;;;;;;8.73;7.45;;;;;;;18.77;100.00;99693.63;1679268;84;21069;-77
2022/08/05 01:41:07;;;;;;;8.28;7.60;;;;;;;18.80;100.00;99692.45;1679017;85;21093;-78
2022/08/05 01:43:35;;;;;;;8.95;8.13;;;;;;;18.81;100.00;99694.63;1678618;84;21111;-79
2022/08/05 01:46:03;;;;;;;8.60;7.65;;;;;;;18.78;100.00;99703.42;1660569;84;21196;-78
2022/08/05 01:48:30;;;;;;;11.33;7.12;;;;;;;18.72;100.00;99699.98;1647924;87;21067;-78
2022/08/05 01:50:57;;;;;;;11.12;8.78;;;;;;;18.69;100.00;99703.33;1647841;87;21792;-78
2022/08/05 01:53:24;;;;;;;10.48;8.95;;;;;;;18.60;100.00;99695.06;1627477;87;21040;-76
2022/08/05 01:55:51;;;;;;;12.82;8.80;;;;;;;18.59;100.00;99709.79;1647815;87;21087;-77
2022/08/05 01:58:18;;;;;;;8.83;7.92;;;;;;;18.53;100.00;99702.81;1647952;87;21140;-77
2022/08/05 02:00:49;;;;;;;8.65;7.85;;;;;;;18.52;100.00;99714.78;1677928;83;21004;-78
2022/08/05 02:03:24;;;;;;;9.95;9.05;;;;;;;18.54;100.00;99717.24;1678920;85;21059;-76
2022/08/05 02:05:52;;;;;;;9.55;8.65;;;;;;;18.53;100.00;99710.98;1670170;83;21096;-77
2022/08/05 02:08:20;;;;;;;12.35;8.90;;;;;;;18.53;100.00;99717.80;1678978;85;21080;-80
2022/08/05 02:10:57;;;;;;;9.48;8.58;;;;;;;18.57;100.00;99713.36;1667569;85;21176;-81
2022/08/05 02:13:31;;;;;;;11.03;8.43;;;;;;;18.57;100.00;99716.08;1678914;84;21029;-81
2022/08/05 02:16:31;;;;;;;8.58;7.78;;;;;;;18.66;100.00;99714.81;1676155;84;20990;-81
2022/08/05 02:19:06;;;;;;;9.50;8.60;;;;;;;18.66;100.00;99714.81;1644277;85;21076;-81
2022/08/05 02:21:37;;;;;;;9.23;8.43;;;;;;;18.67;100.00;99719.16;1678753;84;20985;-81
2022/08/05 02:24:08;;;;;;;11.03;9.18;;;;;;;18.69;100.00;99712.87;1678790;84;21792;-81
2022/08/05 02:26:38;;;;;;;10.32;8.45;;;;;;;18.76;100.00;99719.26;1678864;84;21100;-80
2022/08/05 02:29:06;;;;;;;10.43;8.23;;;;;;;18.83;100.00;99712.86;1679190;85;21096;-80
2022/08/05 02:31:34;;;;;;;9.10;8.30;;;;;;;18.82;100.00;99722.14;1679235;85;21052;-81
2022/08/05 02:34:10;;;;;;;8.85;8.05;;;;;;;18.81;100.00;99719.97;1667568;85;21017;-81
2022/08/05 02:36:41;;;;;;;10.65;8.88;;;;;;;18.81;100.00;99718.61;1667316;85;21260;-76
2022/08/05 02:39:12;;;;;;;9.33;8.03;;;;;;;18.89;100.00;99719.83;1679204;85;21133;-76
2022/08/05 02:41:37;;;;;;;8.93;8.03;;;;;;;18.89;100.00;99717.11;1671974;83;21025;-76
2022/08/05 02:44:08;;;;;;;8.48;7.67;;;;;;;18.94;100.00;99720.54;1678883;85;21530;-77
2022/08/05 02:46:35;;;;;;;9.08;8.28;;;;;;;18.94;100.00;99717.81;1678142;84;21530;-76
2022/08/05 02:49:02;;;;;;;9.50;8.60;;;;;;;18.94;100.00;99717.81;1679245;84;21017;-78
2022/08/05 02:51:29;;;;;;;10.23;8.38;;;;;;;18.96;100.00;99714.21;1667134;85;20988;-77
2022/08/05 02:53:56;;;;;;;7.67;6.97;;;;;;;18.98;100.00;99718.81;1679140;84;21017;-75
2022/08/05 02:56:23;;;;;;;9.85;8.28;;;;;;;19.02;100.00;99709.46;1679445;85;21090;-80
2022/08/05 02:58:52;;;;;;;7.80;7.08;;;;;;;19.06;100.00;99703.09;1679099;84;21018;-79
2022/08/05 03:01:23;;;;;;;8.63;7.60;;;;;;;19.10;100.00;99691.83;1655614;85;21889;-79
2022/08/05 03:03:53;;;;;;;7.87;6.80;;;;;;;19.07;100.00;99701.98;1687135;83;21035;-78
2022/08/05 03:06:20;;;;;;;8.93;7.25;;;;;;;19.06;100.00;99708.55;1673525;85;21608;-80
2022/08/05 03:08:48;;;;;;;8.95;7.78;;;;;;;19.09;100.00;99709.84;1661699;84;21177;-78
2022/08/05 03:11:22;;;;;;;9.40;8.40;;;;;;;19.14;100.00;99709.18;1654738;86;21063;-79
2022/08/05 03:13:49;;;;;;;10.85;7.92;;;;;;;19.09;100.00;99709.84;1656309;86;21912;-78
2022/08/05 03:16:16;;;;;;;8.30;7.53;;;;;;;19.08;100.00;99707.70;1699485;84;21008;-79
2022/08/05 03:18:42;;;;;;;10.03;7.90;;;;;;;19.11;100.00;99700.81;1704640;83;21560;-79
2022/08/05 03:21:10;;;;;;;8.70;7.78;;;;;;;19.16;100.00;99711.61;1679186;84;21009;-77
2022/08/05 03:23:39;;;;;;;8.43;7.67;;;;;;;19.20;100.00;99713.97;1674934;84;21032;-77
2022/08/05 03:26:06;;;;;;;10.30;8.38;;;;;;;19.21;100.00;99710.69;1679291;84;21162;-79
2022/08/05 03:28:32;;;;;;;8.60;7.65;;;;;;;19.19;100.00;99709.63;1678406;83;21522;-79
2022/08/05 03:31:00;;;;;;;8.35;7.55;;;;;;;19.22;100.00;99708.22;1679028;84;21076;-79
2022/08/05 03:33:27;;;;;;;8.75;7.92;;;;;;;19.17;100.00;99714.59;1679086;84;21008;-79
2022/08/05 03:35:56;;;;;;;12.33;9.28;;;;;;;19.18;100.00;99718.13;1679066;85;21036;-78
2022/08/05 03:38:26;;;;;;;8.38;7.58;;;;;;;19.13;100.00;99719.05;1679401;84;21144;-80
2022/08/05 03:40:53;;;;;;;9.20;8.25;;;;;;;19.15;100.00;99714.89;1663949;86;21054;-79
2022/08/05 03:43:19;;;;;;;10.60;9.60;;;;;;;19.20;100.00;99709.88;1662988;84;21082;-78
2022/08/05 03:45:46;;;;;;;9.25;8.28;;;;;;;19.18;100.00;99714.05;1678929;84;21000;-83
2022/08/05 03:48:13;;;;;;;8.93;8.13;;;;;;;19.18;100.00;99707.45;1679112;84;21076;-77
2022/08/05 03:51:19;;;;;;;9.93;8.93;;;;;;;19.22;100.00;99708.22;1667866;84;21102;-79
2022/08/05 03:53:58;;;;;;;;;;;;;;;19.24;100.00;99708.16;1653635;86;21060;-80
2022/08/05 03:56:40;;;;;;;17.57;9.95;;;;;;;19.30;100.00;99713.75;1651998;86;20160;-81
2022/08/05 03:59:18;;;;;;;16.40;10.65;;;;;;;19.34;100.00;99716.11;1671805;83;21103;-79
2022/08/05 04:01:46;;;;;;;13.18;9.78;;;;;;;19.39;100.00;99726.10;1678851;84;21160;-81
2022/08/05 04:04:14;;;;;;;10.72;9.85;;;;;;;19.42;100.00;99726.87;1680620;85;21142;-79
2022/08/05 04:06:40;;;;;;;13.40;9.70;;;;;;;19.43;100.00;99732.00;1642532;86;20916;-78
2022/08/05 04:09:07;;;;;;;12.33;10.53;;;;;;;19.45;100.00;99722.99;1716294;82;21026;-78
2022/08/05 04:11:34;;;;;;;14.38;13.05;;;;;;;19.48;100.00;99727.02;1712566;82;21404;-78
2022/08/05 04:14:03;;;;;;;10.88;9.85;;;;;;;19.46;100.00;99727.34;1652443;85;21079;-80
2022/08/05 04:16:31;;;;;;;12.88;11.45;;;;;;;19.47;100.00;99722.70;1679384;85;21552;-76
2022/08/05 04:18:58;;;;;;;15.65;12.45;;;;;;;19.48;100.00;99717.47;1706379;83;21009;-77
2022/08/05 04:21:24;;;;;;;15.18;12.53;;;;;;;19.52;100.00;99721.19;1710862;83;21111;-77
2022/08/05 04:23:54;;;;;;;12.13;10.72;;;;;;;19.51;100.00;99725.05;1711264;83;21064;-77
2022/08/05 04:26:20;;;;;;;15.18;13.68;;;;;;;19.51;100.00;99729.14;1711062;83;20984;-78
2022/08/05 04:28:47;;;;;;;12.40;11.15;;;;;;;19.48;100.00;99721.55;1711523;83;21500;-78
2022/08/05 04:31:16;;;;;;;13.55;12.23;;;;;;;19.44;100.00;99720.01;1722621;82;21053;-78
2022/08/05 04:33:43;;;;;;;10.63;9.53;;;;;;;19.44;100.00;99717.28;1740755;82;21088;-78
2022/08/05 04:36:09;;;;;;;11.90;10.78;;;;;;;19.50;100.00;99717.42;1696299;83;21538;-77
2022/08/05 04:38:36;;;;;;;10.85;8.93;;;;;;;19.53;100.00;99715.43;1717694;82;21087;-77
2022/08/05 04:41:03;;;;;;;12.88;11.20;;;;;;;19.55;100.00;99714.58;1718372;83;21139;-77
2022/08/05 04:43:30;;;;;;;12.60;11.30;;;;;;;19.54;100.00;99716.23;1657033;85;21012;-76
2022/08/05 04:45:57;;;;;;;11.83;10.50;;;;;;;19.56;100.00;99715.39;1681831;85;20988;-75
2022/08/05 04:48:24;;;;;;;13.38;12.18;;;;;;;19.57;100.00;99712.33;1681993;85;21075;-79
2022/08/05 04:50:51;;;;;;;12.90;11.40;;;;;;;19.63;100.00;99723.94;1681839;84;21084;-77
2022/08/05 04:53:18;;;;;;;14.10;12.15;;;;;;;19.70;100.00;99728.98;1663325;85;21064;-78
2022/08/05 04:55:45;;;;;;;12.03;10.95;;;;;;;19.66;100.00;99726.63;1647959;87;21552;-77
2022/08/05 04:58:14;;;;;;;11.08;10.08;;;;;;;19.64;100.00;99723.38;1671422;83;21052;-75
2022/08/05 05:00:41;;;;;;;11.90;10.80;;;;;;;19.65;100.00;99727.17;1678854;85;21024;-78
2022/08/05 05:03:10;;;;;;;16.50;14.65;;;;;;;19.68;100.00;99730.64;1679590;85;21567;-78
2022/08/05 05:05:36;;;;;;;14.43;12.95;;;;;;;19.72;100.00;99732.19;1682725;84;21071;-76
2022/08/05 05:08:08;;;;;;;18.50;13.85;;;;;;;19.77;100.00;99733.44;1681523;84;21681;-78
2022/08/05 05:10:43;;;;;;;15.30;12.40;;;;;;;19.82;100.00;99738.22;1681143;83;21089;-77
2022/08/05 05:13:13;;;;;;;13.00;11.70;;;;;;;19.88;100.00;99741.64;1678687;83;21065;-76
2022/08/05 05:15:41;;;;;;;14.95;13.53;;;;;;;19.92;100.00;99748.09;1702814;83;21532;-79
2022/08/05 05:18:08;;;;;;;15.70;14.05;;;;;;;19.93;100.00;99746.42;1711412;83;21917;-77
2022/08/05 05:20:35;;;;;;;15.10;13.50;;;;;;;19.94;100.00;99745.31;1685807;82;20987;-78
2022/08/05 05:23:05;;;;;;;15.43;13.83;;;;;;;19.98;100.00;99746.86;1678996;85;21060;-78
2022/08/05 05:25:32;;;;;;;17.80;13.62;;;;;;;19.99;100.00;99745.19;1647733;87;21059;-79
2022/08/05 05:27:59;;;;;;;16.48;14.75;;;;;;;20.00;100.00;99748.14;1646553;84;21009;-79
2022/08/05 05:30:25;;;;;;;16.85;15.08;;;;;;;20.02;100.00;99745.92;1661997;84;21569;-81
2022/08/05 05:32:52;;;;;;;17.77;15.90;;;;;;;20.01;100.00;99751.13;1701788;83;21003;-81
2022/08/05 05:35:22;;;;;;;16.52;14.50;;;;;;;20.00;100.00;99747.33;1722233;83;21029;-77
2022/08/05 05:37:56;;;;;;;18.23;16.10;;;;;;;19.97;100.00;99754.23;1694250;83;21482;-77
2022/08/05 05:40:24;;;;;;;18.20;16.25;;;;;;;19.97;100.00;99758.33;1710707;82;21508;-78
2022/08/05 05:42:52;;;;;;;16.75;15.00;;;;;;;19.96;100.00;99750.44;1711152;83;21063;-77
2022/08/05 05:45:19;;;;;;;27.77;20.75;;;;;;;20.00;100.00;99749.51;1714218;83;21007;-76
2022/08/05 05:47:46;;;;;;;22.58;20.17;;;;;;;20.03;100.00;99761.75;1713308;83;20908;-79
2022/08/05 05:50:16;;;;;;;21.87;16.40;;;;;;;20.02;100.00;99760.94;1715252;83;20954;-78
2022/08/05 05:52:43;;;;;;;16.23;14.63;;;;;;;20.07;100.00;99761.38;1716336;83;21077;-81
2022/08/05 05:55:12;;;;;;;16.55;14.87;;;;;;;20.07;100.00;99757.27;1716557;82;21217;-77
2022/08/05 05:57:41;;;;;;;17.37;15.58;;;;;;;20.12;100.00;99755.78;1711271;83;21000;-78
2022/08/05 06:00:11;;;;;;;16.00;14.35;;;;;;;20.13;100.00;99756.04;1711387;83;20975;-79
2022/08/05 06:02:42;;;;;;;17.85;15.93;;;;;;;20.16;100.00;99761.42;1718931;82;20928;-79
2022/08/05 06:05:11;;;;;;;20.15;14.15;;;;;;;20.11;100.00;99759.63;1714073;82;21528;-78
2022/08/05 06:07:37;;;;;;;20.90;18.00;;;;;;;20.12;100.00;99763.98;1716392;83;21288;-79
2022/08/05 06:10:05;;;;;;;23.12;18.23;;;;;;;20.14;100.00;99755.48;1652378;86;21008;-81
2022/08/05 06:12:34;;;;;;;20.43;17.60;;;;;;;20.16;100.00;99758.69;1677999;85;22196;-80
2022/08/05 06:15:02;;;;;;;21.73;19.27;;;;;;;20.19;100.00;99759.45;1652427;85;20984;-80
2022/08/05 06:17:30;;;;;;;22.58;18.95;;;;;;;20.18;100.00;99752.38;1684034;84;21091;-81
2022/08/05 06:19:57;;;;;;;18.45;16.12;;;;;;;20.22;100.00;99754.72;1651043;85;21335;-79
2022/08/05 06:22:29;;;;;;;19.32;16.70;;;;;;;20.27;100.00;99749.13;1678858;83;21224;-81
2022/08/05 06:24:55;;;;;;;20.35;18.23;;;;;;;20.29;100.00;99761.90;1671850;85;20973;-83
2022/08/05 06:27:22;;;;;;;21.05;17.52;;;;;;;20.30;100.00;99763.52;1647913;87;21091;-82
2022/08/05 06:29:49;;;;;;;23.67;18.35;;;;;;;20.36;100.00;99756.84;1650198;83;21044;-82
2022/08/05 06:32:16;;;;;;;21.60;19.35;;;;;;;20.41;100.00;99756.16;1652538;85;21228;-84
2022/08/05 06:34:44;;;;;;;19.75;17.75;;;;;;;20.40;100.00;99758.64;1681865;85;21557;-83
2022/08/05 06:37:11;;;;;;;24.52;21.90;;;;;;;20.41;100.00;99761.62;1681678;85;21036;-83
2022/08/05 06:39:40;;;;;;;20.65;18.55;;;;;;;20.44;100.00;99756.89;1681430;84;21055;-84
2022/08/05 06:42:07;;;;;;;21.17;18.95;;;;;;;20.46;100.00;99763.41;1681818;85;21588;-84
2022/08/05 06:44:33;;;;;;;24.90;21.40;;;;;;;20.49;100.00;99760.60;1680565;83;21038;-84
2022/08/05 06:47:00;;;;;;;23.65;21.23;;;;;;;20.49;100.00;99762.78;1680096;85;20992;-86
2022/08/05 06:49:27;;;;;;;23.57;19.92;;;;;;;20.51;100.00;99760.55;1649375;85;21052;-81
2022/08/05 06:51:54;;;;;;;25.52;22.60;;;;;;;20.53;100.00;99764.34;1607688;86;21139;-78
2022/08/05 06:54:20;;;;;;;31.27;23.62;;;;;;;20.49;100.00;99764.70;1657069;86;21134;-78
2022/08/05 06:56:47;;;;;;;27.48;22.73;;;;;;;20.49;100.00;99768.80;1657212;84;21589;-80
2022/08/05 06:59:13;;;;;;;26.50;22.67;;;;;;;20.49;100.00;99775.08;1657271;86;21538;-80
2022/08/05 07:01:44;;;;;;;24.00;20.95;;;;;;;20.48;100.00;99772.67;1657055;86;21087;-85
2022/08/05 07:04:10;;;;;;;30.92;26.35;;;;;;;20.49;100.00;99777.81;1653238;86;20996;-87
2022/08/05 07:06:37;;;;;;;25.10;21.12;;;;;;;20.47;100.00;99783.35;1658900;84;21128;-85
2022/08/05 07:09:04;;;;;;;23.77;21.25;;;;;;;20.50;100.00;99781.34;1656127;85;21217;-87
2022/08/05 07:11:33;;;;;;;22.17;19.32;;;;;;;20.49;100.00;99779.17;1688908;83;21016;-85
2022/08/05 07:16:50;;;;;;;20.40;18.35;;;;;;;20.52;100.00;99785.40;1685804;84;21084;-81
2022/08/05 07:19:19;;;;;;;32.03;22.82;;;;;;;20.56;100.00;99786.94;1662453;83;21675;-79
2022/08/05 07:21:47;;;;;;;19.45;17.52;;;;;;;20.56;100.00;99778.73;1680671;85;21281;-79
2022/08/05 07:24:15;;;;;;;20.92;18.40;;;;;;;20.61;100.00;99784.08;1652425;86;21043;-82
2022/08/05 07:26:43;;;;;;;25.25;19.20;;;;;;;20.64;100.00;99784.80;1679923;85;21032;-80
2022/08/05 07:29:09;;;;;;;22.32;19.95;;;;;;;20.64;100.00;99786.98;1679108;84;21009;-79
2022/08/05 07:31:36;;;;;;;24.95;19.40;;;;;;;20.71;100.00;99783.80;1678905;85;21306;-78
2022/08/05 07:34:03;;;;;;;22.15;19.85;;;;;;;20.77;100.00;99777.86;1699055;84;21932;-81
2022/08/05 07:36:32;;;;;;;21.70;19.40;;;;;;;20.84;100.00;99782.89;1689803;84;20988;-82
2022/08/05 07:39:01;;;;;;;22.85;20.35;;;;;;;20.89;100.00;99782.75;1668070;83;21012;-78
2022/08/05 07:41:30;;;;;;;21.52;19.15;;;;;;;20.92;100.00;99784.03;1660604;86;21052;-81
2022/08/05 07:43:59;;;;;;;22.32;19.77;;;;;;;20.97;100.00;99780.60;1661743;86;21131;-80
2022/08/05 07:46:28;;;;;;;22.32;19.80;;;;;;;20.95;100.00;99777.95;1661940;86;21580;-79
2022/08/05 07:48:57;;;;;;;22.25;19.80;;;;;;;21.01;100.00;99780.21;1661720;86;21051;-79
2022/08/05 07:51:25;;;;;;;24.35;20.27;;;;;;;21.08;100.00;99792.88;1661917;86;20992;-78
2022/08/05 07:53:52;;;;;;;22.20;19.70;;;;;;;21.11;100.00;99785.39;1661733;86;21172;-80
2022/08/05 07:56:20;;;;;;;22.60;19.02;;;;;;;21.15;100.00;99793.23;1661132;86;21027;-86
2022/08/05 07:58:47;;;;;;;21.57;17.95;;;;;;;21.18;100.00;99797.28;1647622;86;22730;-82
2022/08/05 08:01:14;;;;;;;20.25;18.25;;;;;;;21.26;100.00;99790.46;1675865;85;21046;-83
2022/08/05 08:03:46;;;;;;;19.40;17.40;;;;;;;21.32;100.00;99791.12;1678540;85;21471;-85
2022/08/05 08:06:13;;;;;;;20.82;18.57;;;;;;;21.33;100.00;99790.56;1681281;84;20993;-88
2022/08/05 08:08:39;;;;;;;22.65;18.67;;;;;;;21.33;100.00;99790.01;1679383;84;21081;-85
2022/08/05 08:11:07;;;;;;;18.75;16.77;;;;;;;21.38;100.00;99789.86;1687253;83;21787;-86
2022/08/05 08:13:34;;;;;;;19.02;17.15;;;;;;;21.43;100.00;99791.08;1678792;84;21522;-84
2022/08/05 08:16:00;;;;;;;16.85;15.05;;;;;;;21.49;99.59;99791.15;1703456;83;21011;-85
2022/08/05 08:18:27;;;;;;;19.95;17.87;;;;;;;21.53;98.73;99800.91;1712508;81;21125;-83
2022/08/05 08:20:54;;;;;;;20.52;17.77;;;;;;;21.56;98.24;99800.27;1680759;85;21015;-83
2022/08/05 08:23:20;;;;;;;20.43;18.12;;;;;;;21.55;98.16;99798.64;1653040;86;21477;-85
2022/08/05 08:25:48;;;;;;;23.52;20.82;;;;;;;21.58;98.07;99799.39;1681551;85;21003;-85
2022/08/05 08:28:15;;;;;;;20.52;18.45;;;;;;;21.60;97.79;99799.30;1639013;86;21064;-84
2022/08/05 08:30:42;;;;;;;19.05;17.05;;;;;;;21.67;97.56;99797.47;1702622;83;21046;-79
2022/08/05 08:33:12;;;;;;;18.60;16.67;;;;;;;21.72;97.36;99800.06;1721484;82;21070;-79
2022/08/05 08:35:39;;;;;;;21.02;17.42;;;;;;;21.74;97.07;99799.97;1712902;82;21121;-82
2022/08/05 08:38:05;;;;;;;16.10;14.40;;;;;;;21.84;96.65;99800.21;1704650;83;21096;-83
2022/08/05 08:40:34;;;;;;;16.23;14.65;;;;;;;21.98;96.16;99806.36;1719668;83;21060;-84
2022/08/05 08:43:01;;;;;;;16.82;15.13;;;;;;;22.08;95.60;99806.61;1680403;83;21053;-81
2022/08/05 08:45:29;;;;;;;17.75;15.95;;;;;;;22.17;94.67;99809.58;1679435;85;21000;-80
2022/08/05 08:47:57;;;;;;;18.92;16.93;;;;;;;22.24;93.64;99813.21;1664766;85;21113;-79
2022/08/05 08:50:25;;;;;;;19.20;16.48;;;;;;;22.36;93.33;99809.80;1642696;84;21545;-78
2022/08/05 08:53:07;;;;;;;18.40;16.42;;;;;;;22.46;92.19;99813.56;1661015;84;20995;-76
2022/08/05 08:55:33;;;;;;;18.70;16.85;;;;;;;22.47;91.47;99812.44;1659913;85;21610;-79
2022/08/05 08:58:00;;;;;;;22.17;17.67;;;;;;;22.51;90.85;99805.17;1652522;84;21048;-77
2022/08/05 09:00:27;;;;;;;20.77;18.57;;;;;;;22.57;90.23;99810.73;1662742;85;21139;-78
2022/08/05 09:02:54;;;;;;;18.23;16.27;;;;;;;22.60;89.84;99809.50;1680902;84;21450;-80
2022/08/05 09:05:21;;;;;;;17.27;15.20;;;;;;;22.65;89.03;99813.20;1656959;86;21569;-77
2022/08/05 09:07:50;;;;;;;20.02;17.87;;;;;;;22.63;89.24;99816.84;1645927;86;21119;-76
2022/08/05 09:10:18;;;;;;;19.12;17.23;;;;;;;22.67;89.52;99817.80;1662764;84;21133;-76
2022/08/05 09:12:44;;;;;;;22.65;16.65;;;;;;;22.66;88.93;99817.56;1660613;86;21263;-74
2022/08/05 09:15:13;;;;;;;23.35;15.83;;;;;;;22.70;88.54;99821.25;1661834;86;21540;-83
2022/08/05 09:17:40;;;;;;;20.23;17.92;;;;;;;22.74;88.79;99818.12;1658371;84;21063;-79
2022/08/05 09:20:10;;;;;;;20.12;18.02;;;;;;;22.79;88.81;99819.31;1650029;84;21040;-79
2022/08/05 09:23:09;;;;;;;21.65;17.37;;;;;;;22.85;88.68;99820.75;1672004;84;21003;-80
2022/08/05 09:25:39;;;;;;;18.77;16.93;;;;;;;22.88;88.64;99826.95;1657544;84;21783;-77
2022/08/05 09:28:15;;;;;;;23.40;18.35;;;;;;;22.91;87.68;99824.94;1669218;84;21082;-78
2022/08/05 09:31:08;;;;;;;15.65;14.03;;;;;;;22.91;87.75;99822.20;1661504;84;20999;-82
2022/08/05 09:34:13;;;;;;;20.85;15.93;;;;;;;22.95;88.00;99825.33;1704629;82;21099;-80
2022/08/05 09:36:49;;;;;;;17.70;16.00;;;;;;;23.02;86.94;99826.20;1674222;83;21036;-78
2022/08/05 09:39:17;;;;;;;18.05;16.32;;;;;;;23.00;86.97;99829.26;1700712;82;21241;-76
2022/08/05 09:42:02;;;;;;;17.02;15.28;;;;;;;23.02;87.29;99834.42;1714836;83;20984;-81
2022/08/05 09:44:48;;;;;;;20.25;18.05;;;;;;;23.02;87.20;99835.20;1711066;83;21138;-81
2022/08/05 09:47:22;;;;;;;20.35;18.15;;;;;;;23.01;87.60;99832.25;1712072;83;21046;-80
2022/08/05 09:49:54;;;;;;;19.62;17.77;;;;;;;22.98;88.38;99837.00;1716046;83;21037;-81
2022/08/05 09:52:32;;;;;;;19.17;16.97;;;;;;;22.99;88.42;99830.95;1692633;82;21969;-78
2022/08/05 09:55:09;;;;;;;18.65;16.95;;;;;;;23.02;88.51;99833.05;1710813;82;21003;-83
2022/08/05 09:57:46;;;;;;;18.23;16.45;;;;;;;23.07;88.71;99832.84;1705391;83;20988;-81
2022/08/05 10:00:17;;;;;;;19.32;17.50;;;;;;;23.09;88.31;99835.27;1712866;83;21590;-82
2022/08/05 10:02:48;;;;;;;19.10;17.07;;;;;;;23.15;87.59;99835.33;1729311;82;21128;-84
2022/08/05 10:05:21;;;;;;;18.27;15.97;;;;;;;23.19;87.47;99832.97;1717847;83;21400;-80
2022/08/05 10:08:00;;;;;;;18.20;16.37;;;;;;;23.27;86.54;99838.97;1678184;84;21558;-79
2022/08/05 10:10:33;;;;;;;18.35;16.45;;;;;;;23.35;86.52;99834.03;1679125;84;24332;-80
2022/08/05 10:13:03;;;;;;;15.72;14.05;;;;;;;23.44;85.79;99832.07;1683363;83;21537;-75
2022/08/05 10:15:37;;;;;;;17.48;15.78;;;;;;;23.48;84.37;99841.81;1678690;85;21111;-79
2022/08/05 10:18:14;;;;;;;19.32;17.25;;;;;;;23.46;84.62;99839.95;1671423;84;21827;-79
2022/08/05 10:20:47;;;;;;;16.10;14.55;;;;;;;23.48;84.60;99841.00;1672304;85;20933;-78
2022/08/05 10:23:20;;;;;;;16.02;14.40;;;;;;;23.49;84.19;99839.88;1654779;85;20986;-81
2022/08/05 10:25:50;;;;;;;15.43;13.93;;;;;;;23.49;84.30;99842.06;1678972;84;37848;-77
2022/08/05 10:28:17;;;;;;;17.23;14.47;;;;;;;23.54;84.17;99847.92;1655481;85;21017;-79
2022/08/05 10:30:45;;;;;;;17.12;15.38;;;;;;;23.59;83.80;99844.42;1677283;85;21249;-80
2022/08/05 10:33:11;;;;;;;16.87;14.73;;;;;;;23.66;83.70;99845.25;1677214;85;21571;-80
2022/08/05 10:35:39;;;;;;;16.30;14.68;;;;;;;23.71;83.87;99848.61;1676799;85;21069;-80
2022/08/05 10:38:06;;;;;;;16.20;14.58;;;;;;;23.81;83.78;99838.61;1671522;85;21145;-79
2022/08/05 10:40:50;;;;;;;17.23;15.60;;;;;;;23.94;83.40;99842.78;1673141;85;21131;-85
2022/08/05 10:43:43;;;;;;;17.30;15.65;;;;;;;24.07;82.89;99850.79;1678330;85;21174;-81
2022/08/05 10:46:12;;;;;;;16.10;14.45;;;;;;;24.21;81.85;99847.80;1712572;82;20941;-76
2022/08/05 10:48:45;;;;;;;16.35;14.75;;;;;;;24.31;81.32;99842.70;1711029;83;20979;-71
2022/08/05 10:51:19;;;;;;;18.32;16.62;;;;;;;24.42;80.87;99838.93;1736625;82;21581;-75
2022/08/05 10:54:00;;;;;;;16.73;14.93;;;;;;;24.47;79.99;99833.79;1719692;82;20988;-77
2022/08/05 10:56:29;;;;;;;17.05;15.43;;;;;;;24.56;79.40;99833.13;1710030;83;21835;-72
2022/08/05 10:59:04;;;;;;;16.93;15.23;;;;;;;24.64;79.16;99832.26;1728458;82;21030;-79
2022/08/05 11:01:38;;;;;;;17.02;15.43;;;;;;;24.72;78.65;99825.84;1707473;84;21550;-76
2022/08/05 11:04:11;;;;;;;15.48;14.10;;;;;;;24.79;77.66;99830.23;1708198;83;21065;-78
2022/08/05 11:07:05;;;;;;;20.10;16.43;;;;;;;24.88;77.82;99824.66;1702545;82;21269;-77
2022/08/05 11:09:49;;;;;;;17.23;15.55;;;;;;;24.99;77.66;99823.85;1711415;83;21502;-77
2022/08/05 11:12:43;;;;;;;16.40;14.90;;;;;;;25.12;76.86;99815.86;1711487;83;20987;-76
2022/08/05 11:15:34;;;;;;;15.68;14.28;;;;;;;25.18;76.14;99817.21;1711606;83;21025;-74
2022/08/05 11:18:26;;;;;;;16.40;14.80;;;;;;;25.21;76.37;99817.11;1711406;83;20999;-76
2022/08/05 11:20:53;;;;;;;15.28;13.78;;;;;;;25.28;75.84;99814.57;1711313;83;21074;-77
2022/08/05 11:23:42;;;;;;;14.60;13.20;;;;;;;25.38;75.09;99814.11;1711185;83;21134;-77
2022/08/05 11:26:12;;;;;;;15.50;13.78;;;;;;;25.47;74.00;99811.23;1710737;82;21067;-79
2022/08/05 11:28:47;;;;;;;14.43;12.95;;;;;;;25.54;73.60;99808.71;1704342;83;21076;-73
2022/08/05 11:31:18;;;;;;;16.17;14.53;;;;;;;25.70;73.13;99809.64;1670819;83;21066;-86
2022/08/05 11:33:51;;;;;;;15.03;13.62;;;;;;;25.88;71.93;99804.66;1689966;83;21055;-76